Time;durP1;ratioP1;P1;durP2;ratioP2;P2;SDS_P1;SDS_P2;PMS_P1;PMS_P2;Temp;Humidity;BMP_temperature;BMP_pressure;BME280_temperature;BME280_humidity;BME280_pressure;Samples;Min_cycle;Max_cycle;Signal;HPM_P1;HPM_P2
2023/01/09 00:02:08;;;;;;;;;;;;;;;;;;4921798;28;20013;-57
2023/01/09 00:04:34;;;;;;;;;;;;;;;;;;4922727;28;20112;-58
2023/01/09 00:07:00;;;;;;;;;;;;;;;;;;4919783;28;19927;-57
2023/01/09 00:09:25;;;;;;;;;;;;;;;;;;4923214;28;19973;-58
2023/01/09 00:11:53;;;;;;;;;;;;;;;;;;4921267;28;20017;-58
2023/01/09 00:14:19;;;;;;;;;;;;;;;;;;4923115;28;20464;-58
2023/01/09 00:16:45;;;;;;;;;;;;;;;;;;4921116;28;19927;-57
2023/01/09 00:19:11;;;;;;;;;;;;;;;;;;4922152;28;19922;-58
2023/01/09 00:21:37;;;;;;;;;;;;;;;;;;4920537;28;19926;-57
2023/01/09 00:24:03;;;;;;;;;;;;;;;;;;4922614;28;19926;-57
2023/01/09 00:26:29;;;;;;;;;;;;;;;;;;4919623;28;19927;-57
2023/01/09 00:28:55;;;;;;;;;;;;;;;;;;4924522;28;20546;-58
2023/01/09 00:31:21;;;;;;;;;;;;;;;;;;4922485;28;20451;-58
2023/01/09 00:33:47;;;;;;;;;;;;;;;;;;4924018;28;19924;-57
2023/01/09 00:36:13;;;;;;;;;;;;;;;;;;4921992;28;19965;-57
2023/01/09 00:38:39;;;;;;;;;;;;;;;;;;4919324;28;20374;-58
2023/01/09 00:41:05;;;;;;;;;;;;;;;;;;4921665;28;19929;-57
2023/01/09 00:43:31;;;;;;;;;;;;;;;;;;4922635;28;20730;-57
2023/01/09 00:45:57;;;;;;;;;;;;;;;;;;4923073;28;19933;-57
2023/01/09 00:48:28;;;;;;;;;;;;;;;;;;4921317;28;19923;-58
2023/01/09 00:50:54;;;;;;;;;;;;;;;;;;4922269;28;20449;-57
2023/01/09 00:53:20;;;;;;;;;;;;;;;;;;4922011;28;19930;-58
2023/01/09 00:55:46;;;;;;;;;;;;;;;;;;4920167;28;20507;-57
2023/01/09 00:58:12;;;;;;;;;;;;;;;;;;4919060;28;20759;-58
2023/01/09 01:00:38;;;;;;;;;;;;;;;;;;4921873;28;19950;-58
2023/01/09 01:03:03;;;;;;;;;;;;;;;;;;4921403;28;19923;-57
2023/01/09 01:08:14;;;;;;;;;;;;;;;;;;4922122;28;19919;-57
2023/01/09 01:10:40;;;;;;;;;;;;;;;;;;4924819;28;19923;-57
2023/01/09 01:13:06;;;;;;;;;;;;;;;;;;4923024;28;20829;-57
2023/01/09 01:15:32;;;;;;;;;;;;;;;;;;4920626;28;19926;-57
2023/01/09 01:17:58;;;;;;;;;;;;;;;;;;4922519;28;20014;-57
2023/01/09 01:20:24;;;;;;;;;;;;;;;;;;4922694;28;19965;-57
2023/01/09 01:22:50;;;;;;;;;;;;;;;;;;4919493;28;19935;-58
2023/01/09 01:25:16;;;;;;;;;;;;;;;;;;4918460;28;19985;-57
2023/01/09 01:27:42;;;;;;;;;;;;;;;;;;4920607;28;19927;-57
2023/01/09 01:30:08;;;;;;;;;;;;;;;;;;4922254;28;19923;-58
2023/01/09 01:32:33;;;;;;;;;;;;;;;;;;4923267;28;19997;-58
2023/01/09 01:34:59;;;;;;;;;;;;;;;;;;4923024;28;20360;-58
2023/01/09 01:37:26;;;;;;;;;;;;;;;;;;4921023;28;19923;-58
2023/01/09 01:39:52;;;;;;;;;;;;;;;;;;4921199;28;20714;-58
2023/01/09 01:42:18;;;;;;;;;;;;;;;;;;4925578;28;19923;-60
2023/01/09 01:44:44;;;;;;;;;;;;;;;;;;4922162;28;19938;-58
2023/01/09 01:47:10;;;;;;;;;;;;;;;;;;4922413;28;19929;-58
2023/01/09 01:49:36;;;;;;;;;;;;;;;;;;4924346;28;20475;-57
2023/01/09 01:52:02;;;;;;;;;;;;;;;;;;4916578;28;19929;-58
2023/01/09 01:54:28;;;;;;;;;;;;;;;;;;4923501;28;21114;-58
2023/01/09 01:56:55;;;;;;;;;;;;;;;;;;4923764;28;19923;-58
2023/01/09 01:59:21;;;;;;;;;;;;;;;;;;4924354;28;19923;-58
2023/01/09 02:01:47;;;;;;;;;;;;;;;;;;4924606;28;19927;-58
2023/01/09 02:04:13;;;;;;;;;;;;;;;;;;4923414;28;20298;-57
2023/01/09 02:06:39;;;;;;;;;;;;;;;;;;4923691;28;20397;-57
2023/01/09 02:09:05;;;;;;;;;;;;;;;;;;4921789;28;20333;-58
2023/01/09 02:11:31;;;;;;;;;;;;;;;;;;4922789;28;20324;-57
2023/01/09 02:13:57;;;;;;;;;;;;;;;;;;4921409;28;19949;-57
2023/01/09 02:16:23;;;;;;;;;;;;;;;;;;4921744;28;19923;-58
2023/01/09 02:18:50;;;;;;;;;;;;;;;;;;4921724;28;20053;-58
2023/01/09 02:21:16;;;;;;;;;;;;;;;;;;4921915;28;19930;-57
2023/01/09 02:23:42;;;;;;;;;;;;;;;;;;4920640;28;19935;-57
2023/01/09 02:26:08;;;;;;;;;;;;;;;;;;4921785;28;19923;-57
2023/01/09 02:28:34;;;;;;;;;;;;;;;;;;4923507;28;20313;-57
2023/01/09 02:31:00;;;;;;;;;;;;;;;;;;4921079;28;20853;-57
2023/01/09 02:33:26;;;;;;;;;;;;;;;;;;4920918;28;19927;-57
2023/01/09 02:35:52;;;;;;;;;;;;;;;;;;4919266;28;19923;-58
2023/01/09 02:38:18;;;;;;;;;;;;;;;;;;4922861;28;19923;-57
2023/01/09 02:40:44;;;;;;;;;;;;;;;;;;4920591;28;19969;-57
2023/01/09 02:43:10;;;;;;;;;;;;;;;;;;4917379;28;19927;-58
2023/01/09 02:45:36;;;;;;;;;;;;;;;;;;4918048;28;20402;-58
2023/01/09 02:48:02;;;;;;;;;;;;;;;;;;4922339;28;20682;-57
2023/01/09 02:50:28;;;;;;;;;;;;;;;;;;4921937;28;20190;-58
2023/01/09 02:52:54;;;;;;;;;;;;;;;;;;4921995;28;20113;-58
2023/01/09 02:55:21;;;;;;;;;;;;;;;;;;4921152;28;19927;-58
2023/01/09 02:57:47;;;;;;;;;;;;;;;;;;4921844;28;19922;-57
2023/01/09 03:00:13;;;;;;;;;;;;;;;;;;4922712;28;19922;-58
2023/01/09 03:02:39;;;;;;;;;;;;;;;;;;4920885;28;20428;-58
2023/01/09 03:05:05;;;;;;;;;;;;;;;;;;4920729;28;19930;-57
2023/01/09 03:07:31;;;;;;;;;;;;;;;;;;4920412;28;19930;-58
2023/01/09 03:09:57;;;;;;;;;;;;;;;;;;4918907;28;19954;-58
2023/01/09 03:12:23;;;;;;;;;;;;;;;;;;4920932;28;19958;-58
2023/01/09 03:14:49;;;;;;;;;;;;;;;;;;4923785;28;19954;-57
2023/01/09 03:17:15;;;;;;;;;;;;;;;;;;4921180;28;19923;-58
2023/01/09 03:19:41;;;;;;;;;;;;;;;;;;4921507;28;19946;-57
2023/01/09 03:22:07;;;;;;;;;;;;;;;;;;4923628;28;20291;-58
2023/01/09 03:24:33;;;;;;;;;;;;;;;;;;4922222;28;20520;-58
2023/01/09 03:26:59;;;;;;;;;;;;;;;;;;4924124;28;20001;-57
2023/01/09 03:29:25;;;;;;;;;;;;;;;;;;4922396;28;19923;-58
2023/01/09 03:31:51;;;;;;;;;;;;;;;;;;4923032;28;19927;-58
2023/01/09 03:34:16;;;;;;;;;;;;;;;;;;4924070;28;21543;-57
2023/01/09 03:36:42;;;;;;;;;;;;;;;;;;4920662;28;19922;-58
2023/01/09 03:39:08;;;;;;;;;;;;;;;;;;4923214;28;19929;-58
2023/01/09 03:41:34;;;;;;;;;;;;;;;;;;4922627;28;20014;-58
2023/01/09 03:44:00;;;;;;;;;;;;;;;;;;4922356;28;19926;-57
2023/01/09 03:46:26;;;;;;;;;;;;;;;;;;4921251;28;20017;-57
2023/01/09 03:48:52;;;;;;;;;;;;;;;;;;4922860;28;20436;-57
2023/01/09 03:51:18;;;;;;;;;;;;;;;;;;4920122;28;20500;-57
2023/01/09 03:53:44;;;;;;;;;;;;;;;;;;4922575;28;19961;-57
2023/01/09 03:56:10;;;;;;;;;;;;;;;;;;4922299;28;20017;-57
2023/01/09 03:58:36;;;;;;;;;;;;;;;;;;4920657;28;19969;-58
2023/01/09 04:01:02;;;;;;;;;;;;;;;;;;4922930;28;19927;-57
2023/01/09 04:03:28;;;;;;;;;;;;;;;;;;4921157;28;20455;-58
2023/01/09 04:05:54;;;;;;;;;;;;;;;;;;4922819;28;19923;-58
2023/01/09 04:08:20;;;;;;;;;;;;;;;;;;4920305;28;20511;-58
2023/01/09 04:10:46;;;;;;;;;;;;;;;;;;4921638;28;20783;-57
2023/01/09 04:13:12;;;;;;;;;;;;;;;;;;4919266;28;19973;-57
2023/01/09 04:15:38;;;;;;;;;;;;;;;;;;4922321;28;19977;-57
2023/01/09 04:18:04;;;;;;;;;;;;;;;;;;4921728;28;20982;-57
2023/01/09 04:20:29;;;;;;;;;;;;;;;;;;4922924;28;20879;-57
2023/01/09 04:22:55;;;;;;;;;;;;;;;;;;4921099;28;20030;-58
2023/01/09 04:25:21;;;;;;;;;;;;;;;;;;4921666;28;20068;-57
2023/01/09 04:27:47;;;;;;;;;;;;;;;;;;4922062;28;20238;-58
2023/01/09 04:30:13;;;;;;;;;;;;;;;;;;4921794;28;20573;-57
2023/01/09 04:32:41;;;;;;;;;;;;;;;;;;4921774;28;20419;-57
2023/01/09 04:35:07;;;;;;;;;;;;;;;;;;4920481;28;19930;-58
2023/01/09 04:37:35;;;;;;;;;;;;;;;;;;4922288;28;19927;-58
2023/01/09 04:40:03;;;;;;;;;;;;;;;;;;4921760;28;19934;-58
2023/01/09 04:42:29;;;;;;;;;;;;;;;;;;4924251;28;19934;-57
2023/01/09 04:44:55;;;;;;;;;;;;;;;;;;4926498;28;19945;-58
2023/01/09 04:47:22;;;;;;;;;;;;;;;;;;4925688;28;20405;-57
2023/01/09 04:49:48;;;;;;;;;;;;;;;;;;4925556;28;19926;-57
2023/01/09 04:52:14;;;;;;;;;;;;;;;;;;4925273;28;19923;-57
2023/01/09 04:54:40;;;;;;;;;;;;;;;;;;4925017;28;19923;-58
2023/01/09 04:57:06;;;;;;;;;;;;;;;;;;4923657;28;20319;-57
2023/01/09 04:59:32;;;;;;;;;;;;;;;;;;4925117;28;19927;-58
2023/01/09 05:01:58;;;;;;;;;;;;;;;;;;4924645;28;19962;-58
2023/01/09 05:04:24;;;;;;;;;;;;;;;;;;4923747;28;20020;-58
2023/01/09 05:06:50;;;;;;;;;;;;;;;;;;4925683;28;20034;-57
2023/01/09 05:09:16;;;;;;;;;;;;;;;;;;4924454;28;20467;-57
2023/01/09 05:11:42;;;;;;;;;;;;;;;;;;4915426;28;20358;-57
2023/01/09 05:14:07;;;;;;;;;;;;;;;;;;4924315;28;19922;-58
2023/01/09 05:16:33;;;;;;;;;;;;;;;;;;4924059;28;19969;-57
2023/01/09 05:18:59;;;;;;;;;;;;;;;;;;4924172;28;19978;-57
2023/01/09 05:21:25;;;;;;;;;;;;;;;;;;4923999;28;19929;-57
2023/01/09 05:23:51;;;;;;;;;;;;;;;;;;4923174;28;19927;-58
2023/01/09 05:26:17;;;;;;;;;;;;;;;;;;4924314;28;21108;-57
2023/01/09 05:28:43;;;;;;;;;;;;;;;;;;4924582;28;19927;-57
2023/01/09 05:31:09;;;;;;;;;;;;;;;;;;4924527;28;19993;-57
2023/01/09 05:33:35;;;;;;;;;;;;;;;;;;4922153;28;19929;-57
2023/01/09 05:36:01;;;;;;;;;;;;;;;;;;4923595;28;19970;-57
2023/01/09 05:38:27;;;;;;;;;;;;;;;;;;4922654;28;19927;-58
2023/01/09 05:40:53;;;;;;;;;;;;;;;;;;4921289;28;19923;-57
2023/01/09 05:43:19;;;;;;;;;;;;;;;;;;4924067;28;19927;-57
2023/01/09 05:45:45;;;;;;;;;;;;;;;;;;4922814;28;19934;-58
2023/01/09 05:48:10;;;;;;;;;;;;;;;;;;4934208;28;19927;-57
2023/01/09 05:50:36;;;;;;;;;;;;;;;;;;4919829;28;19923;-57
2023/01/09 05:53:02;;;;;;;;;;;;;;;;;;4921974;28;19946;-57
2023/01/09 05:55:28;;;;;;;;;;;;;;;;;;4922038;28;20563;-58
2023/01/09 05:57:54;;;;;;;;;;;;;;;;;;4923696;28;20312;-57
2023/01/09 06:00:20;;;;;;;;;;;;;;;;;;4923858;28;20349;-57
2023/01/09 06:02:46;;;;;;;;;;;;;;;;;;4920326;28;20432;-57
2023/01/09 06:05:12;;;;;;;;;;;;;;;;;;4918662;28;19923;-58
2023/01/09 06:07:39;;;;;;;;;;;;;;;;;;4917694;28;19941;-57
2023/01/09 06:10:05;;;;;;;;;;;;;;;;;;4922499;28;19922;-57
2023/01/09 06:12:31;;;;;;;;;;;;;;;;;;4917857;28;20397;-58
2023/01/09 06:14:57;;;;;;;;;;;;;;;;;;4923105;28;20331;-59
2023/01/09 06:17:23;;;;;;;;;;;;;;;;;;4916725;28;19927;-58
2023/01/09 06:19:50;;;;;;;;;;;;;;;;;;4918126;28;19923;-61
2023/01/09 06:22:16;;;;;;;;;;;;;;;;;;4917689;28;20302;-57
2023/01/09 06:24:42;;;;;;;;;;;;;;;;;;4917692;28;20416;-58
2023/01/09 06:27:08;;;;;;;;;;;;;;;;;;4920838;28;20519;-57
2023/01/09 06:29:33;;;;;;;;;;;;;;;;;;4922400;28;20357;-58
2023/01/09 06:31:59;;;;;;;;;;;;;;;;;;4922536;28;20014;-58
2023/01/09 06:34:25;;;;;;;;;;;;;;;;;;4922890;28;19923;-57
2023/01/09 06:36:51;;;;;;;;;;;;;;;;;;4922986;28;19973;-58
2023/01/09 06:39:17;;;;;;;;;;;;;;;;;;4921833;28;19977;-58
2023/01/09 06:41:44;;;;;;;;;;;;;;;;;;4921540;28;19945;-57
2023/01/09 06:44:10;;;;;;;;;;;;;;;;;;4922546;28;19930;-57
2023/01/09 06:46:36;;;;;;;;;;;;;;;;;;4912471;28;19950;-58
2023/01/09 06:49:02;;;;;;;;;;;;;;;;;;4921764;28;19922;-58
2023/01/09 06:51:27;;;;;;;;;;;;;;;;;;4919157;28;19930;-58
2023/01/09 06:53:53;;;;;;;;;;;;;;;;;;4917204;28;19923;-58
2023/01/09 06:56:19;;;;;;;;;;;;;;;;;;4912178;28;19993;-58
2023/01/09 06:58:45;;;;;;;;;;;;;;;;;;4920663;28;20424;-57
2023/01/09 07:01:11;;;;;;;;;;;;;;;;;;4919845;28;21033;-57
2023/01/09 07:03:37;;;;;;;;;;;;;;;;;;4922110;28;20437;-58
2023/01/09 07:06:03;;;;;;;;;;;;;;;;;;4922038;28;19927;-58
2023/01/09 07:08:29;;;;;;;;;;;;;;;;;;4918612;28;19927;-58
2023/01/09 07:10:55;;;;;;;;;;;;;;;;;;4921405;28;19973;-58
2023/01/09 07:13:21;;;;;;;;;;;;;;;;;;4921987;28;20325;-57
2023/01/09 07:15:48;;;;;;;;;;;;;;;;;;4916356;28;19927;-58
2023/01/09 07:18:14;;;;;;;;;;;;;;;;;;4919651;28;19929;-57
2023/01/09 07:20:40;;;;;;;;;;;;;;;;;;4922641;28;19945;-58
2023/01/09 07:23:06;;;;;;;;;;;;;;;;;;4920195;28;19927;-57
2023/01/09 07:25:32;;;;;;;;;;;;;;;;;;4921384;28;20484;-57
2023/01/09 07:27:58;;;;;;;;;;;;;;;;;;4919256;28;19923;-57
2023/01/09 07:30:24;;;;;;;;;;;;;;;;;;4915898;28;19923;-57
2023/01/09 07:32:50;;;;;;;;;;;;;;;;;;4909232;28;19923;-58
2023/01/09 07:35:16;;;;;;;;;;;;;;;;;;4910030;28;19927;-57
2023/01/09 07:37:42;;;;;;;;;;;;;;;;;;4911860;28;19954;-58
2023/01/09 07:40:08;;;;;;;;;;;;;;;;;;4918006;28;19929;-58
2023/01/09 07:42:34;;;;;;;;;;;;;;;;;;4920736;28;19923;-57
2023/01/09 07:45:00;;;;;;;;;;;;;;;;;;4921432;28;19931;-58
2023/01/09 07:47:25;;;;;;;;;;;;;;;;;;4918101;28;20090;-58
2023/01/09 07:49:51;;;;;;;;;;;;;;;;;;4924487;28;20057;-58
2023/01/09 07:52:17;;;;;;;;;;;;;;;;;;4922188;28;20404;-58
2023/01/09 07:54:43;;;;;;;;;;;;;;;;;;4923964;28;19927;-58
2023/01/09 07:57:09;;;;;;;;;;;;;;;;;;4921435;28;19930;-58
2023/01/09 07:59:35;;;;;;;;;;;;;;;;;;4920425;28;19923;-58
2023/01/09 08:02:04;;;;;;;;;;;;;;;;;;4923904;28;20324;-58
2023/01/09 08:04:30;;;;;;;;;;;;;;;;;;4924185;28;19926;-58
2023/01/09 08:06:56;;;;;;;;;;;;;;;;;;4924649;28;19923;-58
2023/01/09 08:09:22;;;;;;;;;;;;;;;;;;4923864;28;20405;-58
2023/01/09 08:11:49;;;;;;;;;;;;;;;;;;4924030;28;20309;-58
2023/01/09 08:14:15;;;;;;;;;;;;;;;;;;4924534;28;19927;-58
2023/01/09 08:16:41;;;;;;;;;;;;;;;;;;4926612;28;19923;-58
2023/01/09 08:19:07;;;;;;;;;;;;;;;;;;4926200;28;19981;-59
2023/01/09 08:21:33;;;;;;;;;;;;;;;;;;4925605;28;19930;-58
2023/01/09 08:23:59;;;;;;;;;;;;;;;;;;4925326;28;20101;-58
2023/01/09 08:26:25;;;;;;;;;;;;;;;;;;4926033;28;20424;-58
2023/01/09 08:28:50;;;;;;;;;;;;;;;;;;4923290;28;20030;-58
2023/01/09 08:31:16;;;;;;;;;;;;;;;;;;4926962;28;19930;-57
2023/01/09 08:33:42;;;;;;;;;;;;;;;;;;4927112;28;19935;-58
2023/01/09 08:36:08;;;;;;;;;;;;;;;;;;4924749;28;19927;-58
2023/01/09 08:38:34;;;;;;;;;;;;;;;;;;4926864;28;19923;-58
2023/01/09 08:47:04;;;;;;;;;;;;;;;;;;4925873;28;20515;-58
2023/01/09 08:49:15;;;;;;;;;;;;;;;;;;4926581;28;19954;-58
2023/01/09 08:51:41;;;;;;;;;;;;;;;;;;4926721;28;20304;-58
2023/01/09 08:54:07;;;;;;;;;;;;;;;;;;4925839;28;19927;-59
2023/01/09 08:56:33;;;;;;;;;;;;;;;;;;4925457;28;19929;-58
2023/01/09 08:58:59;;;;;;;;;;;;;;;;;;4926940;28;19923;-58
2023/01/09 09:01:25;;;;;;;;;;;;;;;;;;4926855;28;19922;-58
2023/01/09 09:03:51;;;;;;;;;;;;;;;;;;4925548;28;20770;-57
2023/01/09 09:06:17;;;;;;;;;;;;;;;;;;4923662;28;19923;-58
2023/01/09 09:08:43;;;;;;;;;;;;;;;;;;4926491;28;19923;-58
2023/01/09 09:11:08;;;;;;;;;;;;;;;;;;4925969;28;20385;-58
2023/01/09 09:13:34;;;;;;;;;;;;;;;;;;4926455;28;19934;-58
2023/01/09 09:16:00;;;;;;;;;;;;;;;;;;4926369;28;19927;-57
2023/01/09 09:18:26;;;;;;;;;;;;;;;;;;4925683;28;19980;-58
2023/01/09 09:20:52;;;;;;;;;;;;;;;;;;4926429;28;19923;-58
2023/01/09 09:23:18;;;;;;;;;;;;;;;;;;4925264;28;20478;-58
2023/01/09 09:25:44;;;;;;;;;;;;;;;;;;4921163;28;20394;-57
2023/01/09 09:28:10;;;;;;;;;;;;;;;;;;4925956;28;19970;-58
2023/01/09 09:30:36;;;;;;;;;;;;;;;;;;4926041;28;20032;-58
2023/01/09 09:33:03;;;;;;;;;;;;;;;;;;4924308;28;19926;-57
2023/01/09 09:35:31;;;;;;;;;;;;;;;;;;4923117;28;19923;-58
2023/01/09 09:37:57;;;;;;;;;;;;;;;;;;4926201;28;19923;-60
2023/01/09 09:40:23;;;;;;;;;;;;;;;;;;4924422;28;19923;-58
2023/01/09 09:45:33;;;;;;;;;;;;;;;;;;4925090;28;19919;-59
2023/01/09 09:47:59;;;;;;;;;;;;;;;;;;4924226;28;20405;-57
2023/01/09 09:50:25;;;;;;;;;;;;;;;;;;4925847;28;19923;-58
2023/01/09 09:52:51;;;;;;;;;;;;;;;;;;4925047;28;19927;-58
2023/01/09 09:55:16;;;;;;;;;;;;;;;;;;4926160;28;19923;-58
2023/01/09 09:57:42;;;;;;;;;;;;;;;;;;4927706;28;20456;-58
2023/01/09 10:00:08;;;;;;;;;;;;;;;;;;4926984;28;19985;-58
2023/01/09 10:02:34;;;;;;;;;;;;;;;;;;4926505;28;20013;-58
2023/01/09 10:05:00;;;;;;;;;;;;;;;;;;4927551;28;19923;-58
2023/01/09 10:07:26;;;;;;;;;;;;;;;;;;4925969;28;20798;-58
2023/01/09 10:09:53;;;;;;;;;;;;;;;;;;4924725;28;19923;-58
2023/01/09 10:12:19;;;;;;;;;;;;;;;;;;4926004;28;19986;-59
2023/01/09 10:14:45;;;;;;;;;;;;;;;;;;4927040;28;19923;-58
2023/01/09 10:17:11;;;;;;;;;;;;;;;;;;4925452;28;19962;-58
2023/01/09 10:19:36;;;;;;;;;;;;;;;;;;4925718;28;19977;-58
2023/01/09 10:22:02;;;;;;;;;;;;;;;;;;4925303;28;19982;-58
2023/01/09 10:24:28;;;;;;;;;;;;;;;;;;4925162;28;19927;-58
2023/01/09 10:26:56;;;;;;;;;;;;;;;;;;4924588;28;19946;-58
2023/01/09 10:29:21;;;;;;;;;;;;;;;;;;4925665;28;19927;-59
2023/01/09 10:31:47;;;;;;;;;;;;;;;;;;4925817;28;19927;-59
2023/01/09 10:34:13;;;;;;;;;;;;;;;;;;4925848;28;20018;-59
2023/01/09 10:36:39;;;;;;;;;;;;;;;;;;4925320;28;20555;-59
2023/01/09 10:39:07;;;;;;;;;;;;;;;;;;4922648;28;19935;-59
2023/01/09 10:41:33;;;;;;;;;;;;;;;;;;4924664;28;19980;-59
2023/01/09 10:43:59;;;;;;;;;;;;;;;;;;4924461;28;20313;-59
2023/01/09 10:46:25;;;;;;;;;;;;;;;;;;4926000;28;20006;-59
2023/01/09 10:48:51;;;;;;;;;;;;;;;;;;4925265;28;19927;-59
2023/01/09 10:51:18;;;;;;;;;;;;;;;;;;4925613;28;20472;-59
2023/01/09 10:53:44;;;;;;;;;;;;;;;;;;4924341;28;20258;-59
2023/01/09 10:56:10;;;;;;;;;;;;;;;;;;4924533;28;19930;-59
2023/01/09 10:58:36;;;;;;;;;;;;;;;;;;4925697;28;19926;-59
2023/01/09 11:01:02;;;;;;;;;;;;;;;;;;4926496;28;20077;-59
2023/01/09 11:03:28;;;;;;;;;;;;;;;;;;4925060;28;20046;-59
2023/01/09 11:05:53;;;;;;;;;;;;;;;;;;4926393;28;20472;-58
2023/01/09 11:08:19;;;;;;;;;;;;;;;;;;4925199;28;19923;-59
2023/01/09 11:10:46;;;;;;;;;;;;;;;;;;4924266;28;19930;-59
2023/01/09 11:13:12;;;;;;;;;;;;;;;;;;4925425;28;20012;-59
2023/01/09 11:15:38;;;;;;;;;;;;;;;;;;4925054;28;20408;-60
2023/01/09 11:18:04;;;;;;;;;;;;;;;;;;4924358;28;19923;-59
2023/01/09 11:20:30;;;;;;;;;;;;;;;;;;4924899;28;19985;-59
2023/01/09 11:22:56;;;;;;;;;;;;;;;;;;4925281;28;19930;-59
2023/01/09 11:25:22;;;;;;;;;;;;;;;;;;4924442;28;20032;-59
2023/01/09 11:27:48;;;;;;;;;;;;;;;;;;4924587;28;20659;-59
2023/01/09 11:30:19;;;;;;;;;;;;;;;;;;4923594;28;19962;-59
2023/01/09 11:32:45;;;;;;;;;;;;;;;;;;4926176;28;20455;-59
2023/01/09 11:35:11;;;;;;;;;;;;;;;;;;4923413;28;19922;-59
2023/01/09 11:37:37;;;;;;;;;;;;;;;;;;4924872;28;19922;-59
2023/01/09 11:40:02;;;;;;;;;;;;;;;;;;4925267;28;20459;-59
2023/01/09 11:45:13;;;;;;;;;;;;;;;;;;4925405;28;19988;-59
2023/01/09 11:47:39;;;;;;;;;;;;;;;;;;4925266;28;19926;-59
2023/01/09 11:50:05;;;;;;;;;;;;;;;;;;4925632;28;19927;-59
2023/01/09 11:52:31;;;;;;;;;;;;;;;;;;4924191;28;19922;-59
2023/01/09 11:54:57;;;;;;;;;;;;;;;;;;4924566;28;19930;-59
2023/01/09 11:57:23;;;;;;;;;;;;;;;;;;4924426;28;19923;-59
2023/01/09 11:59:49;;;;;;;;;;;;;;;;;;4925208;28;19926;-59
2023/01/09 12:02:15;;;;;;;;;;;;;;;;;;4923937;28;20428;-60
2023/01/09 12:04:41;;;;;;;;;;;;;;;;;;4925009;28;19971;-59
2023/01/09 12:07:07;;;;;;;;;;;;;;;;;;4924634;28;20169;-59
2023/01/09 12:09:33;;;;;;;;;;;;;;;;;;4923864;28;19991;-59
2023/01/09 12:12:00;;;;;;;;;;;;;;;;;;4924650;28;19930;-59
2023/01/09 12:14:26;;;;;;;;;;;;;;;;;;4924017;28;19958;-59
2023/01/09 12:16:52;;;;;;;;;;;;;;;;;;4923934;28;19930;-59
2023/01/09 12:19:17;;;;;;;;;;;;;;;;;;4920108;28;19965;-59
2023/01/09 12:21:43;;;;;;;;;;;;;;;;;;4924280;28;20409;-59
2023/01/09 12:24:09;;;;;;;;;;;;;;;;;;4924360;28;19923;-59
2023/01/09 12:26:35;;;;;;;;;;;;;;;;;;4922212;28;19923;-58
2023/01/09 12:29:01;;;;;;;;;;;;;;;;;;4922867;28;19927;-58
2023/01/09 12:31:27;;;;;;;;;;;;;;;;;;4924450;28;19957;-58
2023/01/09 12:33:53;;;;;;;;;;;;;;;;;;4923105;28;21218;-58
2023/01/09 12:36:19;;;;;;;;;;;;;;;;;;4924041;28;19923;-58
2023/01/09 12:38:45;;;;;;;;;;;;;;;;;;4923174;28;20786;-58
2023/01/09 12:41:11;;;;;;;;;;;;;;;;;;4923223;28;19923;-58
2023/01/09 12:43:37;;;;;;;;;;;;;;;;;;4923035;28;20141;-58
2023/01/09 12:46:03;;;;;;;;;;;;;;;;;;4922970;28;19923;-58
2023/01/09 12:48:29;;;;;;;;;;;;;;;;;;4924388;28;20072;-58
2023/01/09 12:50:55;;;;;;;;;;;;;;;;;;4921745;28;20396;-58
2023/01/09 12:53:21;;;;;;;;;;;;;;;;;;4923366;28;19923;-58
2023/01/09 12:55:47;;;;;;;;;;;;;;;;;;4922450;28;19954;-58
2023/01/09 12:58:13;;;;;;;;;;;;;;;;;;4924017;28;20443;-58
2023/01/09 13:00:38;;;;;;;;;;;;;;;;;;4922555;28;20429;-58
2023/01/09 13:03:04;;;;;;;;;;;;;;;;;;4927044;28;20009;-57
2023/01/09 13:05:30;;;;;;;;;;;;;;;;;;4926601;28;19929;-57
2023/01/09 13:07:56;;;;;;;;;;;;;;;;;;4926997;28;19961;-57
2023/01/09 13:10:22;;;;;;;;;;;;;;;;;;4926442;28;20388;-57
2023/01/09 13:12:48;;;;;;;;;;;;;;;;;;4927112;28;19969;-57
2023/01/09 13:15:14;;;;;;;;;;;;;;;;;;4927154;28;19969;-57
2023/01/09 13:17:40;;;;;;;;;;;;;;;;;;4924783;28;20005;-57
2023/01/09 13:20:06;;;;;;;;;;;;;;;;;;4926538;28;19923;-57
2023/01/09 13:22:32;;;;;;;;;;;;;;;;;;4926567;28;19930;-57
2023/01/09 13:24:59;;;;;;;;;;;;;;;;;;4926534;28;20034;-57
2023/01/09 13:27:25;;;;;;;;;;;;;;;;;;4927016;28;19934;-57
2023/01/09 13:29:51;;;;;;;;;;;;;;;;;;4926424;28;19923;-58
2023/01/09 13:32:17;;;;;;;;;;;;;;;;;;4925839;28;20013;-59
2023/01/09 13:34:43;;;;;;;;;;;;;;;;;;4925674;28;20404;-58
2023/01/09 13:37:08;;;;;;;;;;;;;;;;;;4924821;28;20324;-58
2023/01/09 13:39:34;;;;;;;;;;;;;;;;;;4925972;28;20404;-58
2023/01/09 13:44:45;;;;;;;;;;;;;;;;;;4927123;28;19919;-58
2023/01/09 13:47:11;;;;;;;;;;;;;;;;;;4927179;28;20431;-59
2023/01/09 13:49:37;;;;;;;;;;;;;;;;;;4925878;28;19981;-58
2023/01/09 13:52:03;;;;;;;;;;;;;;;;;;4927177;28;20018;-58
2023/01/09 13:54:29;;;;;;;;;;;;;;;;;;4925676;28;20138;-58
2023/01/09 13:56:55;;;;;;;;;;;;;;;;;;4925885;28;19934;-58
2023/01/09 13:59:21;;;;;;;;;;;;;;;;;;4925667;28;19923;-58
2023/01/09 14:01:46;;;;;;;;;;;;;;;;;;4926715;28;19922;-58
2023/01/09 14:04:13;;;;;;;;;;;;;;;;;;4925883;28;19923;-58
2023/01/09 14:06:39;;;;;;;;;;;;;;;;;;4925919;28;19927;-58
2023/01/09 14:09:05;;;;;;;;;;;;;;;;;;4926360;28;20317;-58
2023/01/09 14:11:31;;;;;;;;;;;;;;;;;;4922337;28;19923;-59
2023/01/09 14:13:57;;;;;;;;;;;;;;;;;;4925640;28;20810;-58
2023/01/09 14:16:22;;;;;;;;;;;;;;;;;;4926704;28;19927;-58
2023/01/09 14:18:49;;;;;;;;;;;;;;;;;;4925049;28;19973;-59
2023/01/09 14:21:14;;;;;;;;;;;;;;;;;;4926779;28;19922;-58
2023/01/09 14:23:41;;;;;;;;;;;;;;;;;;4925107;28;19933;-58
2023/01/09 14:26:07;;;;;;;;;;;;;;;;;;4925303;28;19933;-58
2023/01/09 14:28:32;;;;;;;;;;;;;;;;;;4925944;28;19923;-58
2023/01/09 14:30:58;;;;;;;;;;;;;;;;;;4926391;28;19930;-58
2023/01/09 14:33:24;;;;;;;;;;;;;;;;;;4926038;28;20004;-58
2023/01/09 14:35:50;;;;;;;;;;;;;;;;;;4924800;28;19934;-58
2023/01/09 14:38:16;;;;;;;;;;;;;;;;;;4926237;28;19924;-58
2023/01/09 14:40:42;;;;;;;;;;;;;;;;;;4924868;28;19922;-58
2023/01/09 14:43:08;;;;;;;;;;;;;;;;;;4924742;28;20804;-58
2023/01/09 14:45:34;;;;;;;;;;;;;;;;;;4926454;28;19927;-57
2023/01/09 14:48:00;;;;;;;;;;;;;;;;;;4926586;28;19927;-58
2023/01/09 14:50:26;;;;;;;;;;;;;;;;;;4925867;28;19923;-58
2023/01/09 14:52:52;;;;;;;;;;;;;;;;;;4924521;28;19923;-58
2023/01/09 14:55:18;;;;;;;;;;;;;;;;;;4925089;28;19927;-58
2023/01/09 14:57:44;;;;;;;;;;;;;;;;;;4924458;28;20444;-58
2023/01/09 15:00:09;;;;;;;;;;;;;;;;;;4925971;28;19923;-58
2023/01/09 15:02:35;;;;;;;;;;;;;;;;;;4925381;28;19929;-58
2023/01/09 15:05:03;;;;;;;;;;;;;;;;;;4925088;28;19926;-58
2023/01/09 15:07:33;;;;;;;;;;;;;;;;;;4923474;28;21083;-58
2023/01/09 15:09:59;;;;;;;;;;;;;;;;;;4925725;28;20021;-58
2023/01/09 15:12:25;;;;;;;;;;;;;;;;;;4925499;28;19930;-58
2023/01/09 15:14:51;;;;;;;;;;;;;;;;;;4924938;28;19927;-58
2023/01/09 15:17:17;;;;;;;;;;;;;;;;;;4923579;28;19945;-58
2023/01/09 15:19:42;;;;;;;;;;;;;;;;;;4925728;28;20413;-58
2023/01/09 15:22:08;;;;;;;;;;;;;;;;;;4924399;28;19927;-58
2023/01/09 15:24:34;;;;;;;;;;;;;;;;;;4922477;28;19927;-58
2023/01/09 15:27:00;;;;;;;;;;;;;;;;;;4925412;28;20718;-58
2023/01/09 15:29:27;;;;;;;;;;;;;;;;;;4924163;28;20307;-58
2023/01/09 15:31:53;;;;;;;;;;;;;;;;;;4924687;28;19953;-58
2023/01/09 15:34:19;;;;;;;;;;;;;;;;;;4925120;28;20707;-58
2023/01/09 15:36:47;;;;;;;;;;;;;;;;;;4924156;28;19923;-59
2023/01/09 15:39:13;;;;;;;;;;;;;;;;;;4923381;28;20025;-58
2023/01/09 15:44:25;;;;;;;;;;;;;;;;;;4925546;28;19923;-58
2023/01/09 15:46:51;;;;;;;;;;;;;;;;;;4924686;28;20012;-58
2023/01/09 15:49:17;;;;;;;;;;;;;;;;;;4924406;28;20018;-58
2023/01/09 15:51:43;;;;;;;;;;;;;;;;;;4925231;28;19923;-58
2023/01/09 15:54:08;;;;;;;;;;;;;;;;;;4923892;28;19936;-58
2023/01/09 15:56:37;;;;;;;;;;;;;;;;;;4925945;28;19923;-58
2023/01/09 15:59:02;;;;;;;;;;;;;;;;;;4924748;28;19926;-58
2023/01/09 16:01:29;;;;;;;;;;;;;;;;;;4925389;28;19923;-58
2023/01/09 16:03:55;;;;;;;;;;;;;;;;;;4923793;28;19927;-58
2023/01/09 16:06:21;;;;;;;;;;;;;;;;;;4926250;28;19922;-58
2023/01/09 16:08:46;;;;;;;;;;;;;;;;;;4922110;28;19981;-58
2023/01/09 16:11:12;;;;;;;;;;;;;;;;;;4924253;28;19940;-58
2023/01/09 16:13:38;;;;;;;;;;;;;;;;;;4923131;28;20372;-58
2023/01/09 16:16:04;;;;;;;;;;;;;;;;;;4922336;28;19946;-58
2023/01/09 16:18:30;;;;;;;;;;;;;;;;;;4922236;28;20356;-58
2023/01/09 16:20:56;;;;;;;;;;;;;;;;;;4924274;28;20425;-57
2023/01/09 16:23:22;;;;;;;;;;;;;;;;;;4922778;28;20001;-58
2023/01/09 16:25:48;;;;;;;;;;;;;;;;;;4924174;28;20713;-58
2023/01/09 16:28:14;;;;;;;;;;;;;;;;;;4925572;28;19922;-58
2023/01/09 16:30:42;;;;;;;;;;;;;;;;;;4924129;28;19930;-58
2023/01/09 16:33:08;;;;;;;;;;;;;;;;;;4924655;28;20398;-58
2023/01/09 16:35:34;;;;;;;;;;;;;;;;;;4922569;28;20483;-58
2023/01/09 16:38:00;;;;;;;;;;;;;;;;;;4925660;28;19970;-58
2023/01/09 16:40:26;;;;;;;;;;;;;;;;;;4923743;28;19927;-58
2023/01/09 16:43:04;;;;;;;;;;;;;;;;;;4925250;28;19934;-58
2023/01/09 16:45:30;;;;;;;;;;;;;;;;;;4927698;28;19981;-58
2023/01/09 16:47:56;;;;;;;;;;;;;;;;;;4923271;28;19922;-58
2023/01/09 16:50:23;;;;;;;;;;;;;;;;;;4926744;28;20416;-58
2023/01/09 16:52:49;;;;;;;;;;;;;;;;;;4924797;28;20384;-59
2023/01/09 16:55:15;;;;;;;;;;;;;;;;;;4926534;28;19923;-58
2023/01/09 16:57:41;;;;;;;;;;;;;;;;;;4926280;28;19929;-58